Time;durP1;ratioP1;P1;durP2;ratioP2;P2;SDS_P1;SDS_P2;PMS_P1;PMS_P2;Temp;Humidity;BMP_temperature;BMP_pressure;BME280_temperature;BME280_humidity;BME280_pressure;Samples;Min_cycle;Max_cycle;Signal;HPM_P1;HPM_P2
2022/11/30 00:01:08;;;;;;;231.68;128.73;;;5.60;99.90;;;;;;4967578;28;20043;-89
2022/11/30 00:03:39;;;;;;;234.05;130.50;;;5.50;99.90;;;;;;5015824;22;20090;-75
2022/11/30 00:06:08;;;;;;;243.93;136.93;;;5.50;99.90;;;;;;4986607;28;20043;-73
2022/11/30 00:08:35;;;;;;;230.65;131.02;;;5.50;99.90;;;;;;4983466;28;20061;-76
2022/11/30 00:11:09;;;;;;;215.95;121.00;;;5.50;99.90;;;;;;4976532;28;20039;-76
2022/11/30 00:13:36;;;;;;;218.18;120.03;;;5.50;99.90;;;;;;4976979;28;20488;-77
2022/11/30 00:16:04;;;;;;;215.25;122.60;;;5.50;99.90;;;;;;4975799;28;20094;-76
2022/11/30 00:18:33;;;;;;;204.60;120.20;;;5.50;99.90;;;;;;4970259;28;20047;-75
2022/11/30 00:21:02;;;;;;;208.85;118.22;;;5.50;99.90;;;;;;4975324;28;20034;-74
2022/11/30 00:23:33;;;;;;;208.82;121.50;;;5.50;99.90;;;;;;4972180;28;20056;-76
2022/11/30 00:26:05;;;;;;;211.75;124.97;;;5.50;99.90;;;;;;4971947;28;20043;-74
2022/11/30 00:28:33;;;;;;;236.20;131.82;;;5.40;99.90;;;;;;4970034;28;20051;-74
2022/11/30 00:31:02;;;;;;;240.85;137.13;;;5.40;99.90;;;;;;4974162;28;20043;-75
2022/11/30 00:33:31;;;;;;;244.25;137.65;;;5.40;99.90;;;;;;4977396;28;20047;-76
2022/11/30 00:36:02;;;;;;;220.35;124.20;;;5.40;99.90;;;;;;5005646;28;20235;-75
2022/11/30 00:38:29;;;;;;;157.32;90.85;;;5.40;99.90;;;;;;4973149;28;20107;-74
2022/11/30 00:40:56;;;;;;;154.50;90.90;;;5.40;99.90;;;;;;4976461;28;20076;-76
2022/11/30 00:43:24;;;;;;;157.75;92.93;;;5.40;99.90;;;;;;4983522;28;20039;-78
2022/11/30 00:45:51;;;;;;;212.57;114.57;;;5.50;99.90;;;;;;4979937;28;20047;-75
2022/11/30 00:48:18;;;;;;;226.32;124.70;;;5.60;99.90;;;;;;4974381;28;20038;-76
2022/11/30 00:50:46;;;;;;;232.43;130.88;;;5.60;99.90;;;;;;4970639;28;20452;-76
2022/11/30 00:53:14;;;;;;;243.85;136.30;;;5.60;99.90;;;;;;4972401;28;20054;-78
2022/11/30 00:55:43;;;;;;;229.40;128.55;;;5.50;99.90;;;;;;4973492;28;20425;-77
2022/11/30 00:58:10;;;;;;;230.85;129.93;;;5.50;99.90;;;;;;4964844;28;20519;-79
2022/11/30 01:00:38;;;;;;;232.50;129.77;;;5.50;99.90;;;;;;4964757;28;20046;-78
2022/11/30 01:03:05;;;;;;;209.82;119.32;;;5.40;99.90;;;;;;4974352;28;20059;-79
2022/11/30 01:05:34;;;;;;;194.18;113.03;;;5.50;99.90;;;;;;4982367;28;20439;-77
2022/11/30 01:08:01;;;;;;;104.25;59.60;;;5.50;99.90;;;;;;4983557;28;20039;-79
2022/11/30 01:10:30;;;;;;;87.78;52.47;;;5.30;99.90;;;;;;4984037;28;20067;-77
2022/11/30 01:12:57;;;;;;;67.97;41.60;;;5.30;99.90;;;;;;4982431;28;20041;-78
2022/11/30 01:15:25;;;;;;;55.70;35.17;;;5.30;99.90;;;;;;4983230;28;20125;-78
2022/11/30 01:17:53;;;;;;;54.75;35.13;;;5.30;99.90;;;;;;4984429;28;20037;-78
2022/11/30 01:20:20;;;;;;;54.47;35.20;;;5.30;99.90;;;;;;4983502;28;20054;-78
2022/11/30 01:22:48;;;;;;;57.30;37.13;;;5.30;99.90;;;;;;4982464;28;20038;-78
2022/11/30 01:25:15;;;;;;;56.65;35.10;;;5.30;99.90;;;;;;4984853;28;20105;-75
2022/11/30 01:27:48;;;;;;;53.20;34.50;;;5.30;99.90;;;;;;4993567;28;20042;-76
2022/11/30 01:30:15;;;;;;;49.08;32.28;;;5.40;99.90;;;;;;5004405;28;20050;-77
2022/11/30 01:32:44;;;;;;;57.33;37.55;;;5.40;99.90;;;;;;4996858;28;20121;-78
2022/11/30 01:35:11;;;;;;;53.97;36.30;;;5.40;99.90;;;;;;4984075;28;20043;-80
2022/11/30 01:37:39;;;;;;;55.50;35.80;;;5.40;99.90;;;;;;4983132;28;20054;-79
2022/11/30 01:40:07;;;;;;;47.63;30.30;;;5.40;99.90;;;;;;4982433;28;20071;-79
2022/11/30 01:42:36;;;;;;;43.15;28.25;;;5.30;99.90;;;;;;4982004;28;20569;-79
2022/11/30 01:45:07;;;;;;;44.72;29.80;;;5.20;99.90;;;;;;4981873;28;20045;-79
2022/11/30 01:47:38;;;;;;;41.97;28.08;;;5.30;99.90;;;;;;4982194;28;20038;-77
2022/11/30 01:50:11;;;;;;;40.88;28.38;;;5.30;99.90;;;;;;4981035;28;20121;-78
2022/11/30 01:52:42;;;;;;;39.65;27.88;;;5.40;99.90;;;;;;4982881;28;20474;-80
2022/11/30 01:55:18;;;;;;;41.97;28.60;;;5.30;99.90;;;;;;4986041;28;20070;-77
2022/11/30 01:57:50;;;;;;;41.53;27.98;;;5.20;99.90;;;;;;4999565;28;20049;-76
2022/11/30 02:00:20;;;;;;;43.88;30.20;;;5.30;99.90;;;;;;4985679;28;20508;-76
2022/11/30 02:02:55;;;;;;;40.95;28.50;;;5.30;99.90;;;;;;4986104;28;20058;-78
2022/11/30 02:05:22;;;;;;;43.33;28.75;;;5.30;99.90;;;;;;4982005;28;20046;-78
2022/11/30 02:07:50;;;;;;;40.28;27.77;;;5.30;99.90;;;;;;4982070;28;20113;-78
2022/11/30 02:10:23;;;;;;;40.50;28.52;;;5.40;99.90;;;;;;4980663;28;20043;-78
2022/11/30 02:13:11;;;;;;;44.92;29.60;;;5.40;99.90;;;;;;4980768;28;20039;-78
2022/11/30 02:15:58;;;;;;;44.10;28.95;;;5.40;99.90;;;;;;4981153;28;20113;-78
2022/11/30 02:18:32;;;;;;;45.58;30.80;;;5.40;99.90;;;;;;4982476;28;20042;-78
2022/11/30 02:21:10;;;;;;;42.50;29.08;;;5.40;99.90;;;;;;4981336;28;20035;-77
2022/11/30 02:24:13;;;;;;;42.00;28.55;;;5.40;99.90;;;;;;4982483;28;20035;-77
2022/11/30 02:26:58;;;;;;;44.13;28.75;;;5.40;99.90;;;;;;4959999;28;20090;-78
2022/11/30 02:29:29;;;;;;;41.50;28.70;;;5.40;99.90;;;;;;4981979;28;20039;-78
2022/11/30 02:32:03;;;;;;;37.10;26.83;;;5.50;99.90;;;;;;4981994;28;20050;-77
2022/11/30 02:34:32;;;;;;;41.95;28.77;;;5.50;99.90;;;;;;4981150;28;20050;-76
2022/11/30 02:37:02;;;;;;;45.83;29.73;;;5.50;99.90;;;;;;4978696;28;20553;-77
2022/11/30 02:39:29;;;;;;;45.67;30.35;;;5.40;99.90;;;;;;4981342;28;20439;-80
2022/11/30 02:41:56;;;;;;;44.70;29.95;;;5.40;99.90;;;;;;4985924;28;20658;-77
2022/11/30 02:44:26;;;;;;;41.30;28.05;;;5.50;99.90;;;;;;4990318;28;20578;-79
2022/11/30 02:47:12;;;;;;;43.40;29.25;;;5.50;99.90;;;;;;4981453;28;20045;-78
2022/11/30 02:49:46;;;;;;;44.30;27.50;;;5.50;99.90;;;;;;4981950;28;20487;-79
2022/11/30 02:52:15;;;;;;;40.70;27.30;;;5.40;99.90;;;;;;4981333;28;20030;-78
2022/11/30 02:54:43;;;;;;;50.00;32.15;;;5.50;99.90;;;;;;4980733;28;20105;-78
2022/11/30 02:57:11;;;;;;;40.42;27.83;;;5.50;99.90;;;;;;4981531;28;20047;-77
2022/11/30 02:59:40;;;;;;;36.88;26.85;;;5.50;99.90;;;;;;4980667;28;20042;-77
2022/11/30 03:02:07;;;;;;;42.47;27.80;;;5.30;99.90;;;;;;4980335;28;20112;-79
2022/11/30 03:04:34;;;;;;;40.55;27.20;;;5.20;99.90;;;;;;4978640;28;20447;-78
2022/11/30 03:07:02;;;;;;;38.78;27.48;;;5.20;99.90;;;;;;4981259;28;20051;-77
2022/11/30 03:09:29;;;;;;;41.40;27.13;;;5.20;99.90;;;;;;4981462;28;20093;-78
2022/11/30 03:11:56;;;;;;;40.03;27.88;;;5.30;99.90;;;;;;4981711;28;20080;-77
2022/11/30 03:14:24;;;;;;;41.30;27.13;;;5.30;99.90;;;;;;4981019;28;20054;-76
2022/11/30 03:16:52;;;;;;;38.28;26.98;;;5.30;99.90;;;;;;4981506;28;20043;-77
2022/11/30 03:19:20;;;;;;;39.15;25.90;;;5.40;99.90;;;;;;4981847;28;20045;-80
2022/11/30 03:21:47;;;;;;;38.05;26.42;;;5.40;99.90;;;;;;4980725;28;20081;-77
2022/11/30 03:24:14;;;;;;;38.58;26.30;;;5.40;99.90;;;;;;4986489;28;20042;-76
2022/11/30 03:26:42;;;;;;;36.53;25.52;;;5.40;99.90;;;;;;4984379;28;20071;-77
2022/11/30 03:29:09;;;;;;;38.58;26.40;;;5.40;99.90;;;;;;4981069;28;20042;-77
2022/11/30 03:31:36;;;;;;;35.33;25.75;;;5.40;99.90;;;;;;4979916;28;20482;-77
2022/11/30 03:34:05;;;;;;;36.40;25.52;;;5.40;99.90;;;;;;4979788;28;20046;-75
2022/11/30 03:36:33;;;;;;;35.55;24.83;;;5.40;99.90;;;;;;4981421;28;20403;-77
2022/11/30 03:39:00;;;;;;;35.90;25.35;;;5.40;99.90;;;;;;4980820;28;20043;-75
2022/11/30 03:41:28;;;;;;;37.90;26.42;;;5.40;99.90;;;;;;4980279;28;20035;-78
2022/11/30 03:43:55;;;;;;;39.72;26.13;;;5.40;99.90;;;;;;4982028;28;20039;-78
2022/11/30 03:46:24;;;;;;;38.83;26.05;;;5.30;99.90;;;;;;4981359;28;20272;-74
2022/11/30 03:48:52;;;;;;;36.92;25.02;;;5.40;99.90;;;;;;4998038;28;20066;-76
2022/11/30 03:51:20;;;;;;;36.63;24.85;;;5.40;99.90;;;;;;5003471;28;20073;-78
2022/11/30 03:53:48;;;;;;;32.22;22.73;;;5.40;99.90;;;;;;4984994;28;20410;-77
2022/11/30 03:56:15;;;;;;;32.20;22.75;;;5.40;99.90;;;;;;4980753;28;20070;-78
2022/11/30 03:58:43;;;;;;;33.17;22.95;;;5.40;99.90;;;;;;4981383;28;20639;-78
2022/11/30 04:01:12;;;;;;;32.25;22.45;;;5.40;99.90;;;;;;4977820;28;20486;-78
2022/11/30 04:03:41;;;;;;;29.88;22.48;;;5.40;99.90;;;;;;4979376;28;20054;-77
2022/11/30 04:06:09;;;;;;;33.40;22.83;;;5.40;99.90;;;;;;4984383;28;20073;-76
2022/11/30 04:08:39;;;;;;;31.00;22.10;;;5.30;99.90;;;;;;4983355;28;20461;-79
2022/11/30 04:11:07;;;;;;;31.40;21.77;;;5.30;99.90;;;;;;4982470;28;20047;-78
2022/11/30 04:13:36;;;;;;;31.40;21.88;;;5.30;99.90;;;;;;4982762;28;20047;-75
2022/11/30 04:16:04;;;;;;;31.42;22.13;;;5.30;99.90;;;;;;4984673;28;20046;-74
2022/11/30 04:18:33;;;;;;;30.55;21.42;;;5.30;99.90;;;;;;4986299;28;20043;-77
2022/11/30 04:21:01;;;;;;;29.90;20.88;;;5.20;99.90;;;;;;4985223;28;20054;-78
2022/11/30 04:23:31;;;;;;;32.13;22.48;;;5.20;99.90;;;;;;4984710;28;20045;-78
2022/11/30 04:26:00;;;;;;;34.65;23.17;;;5.30;99.90;;;;;;4985999;28;20487;-77
2022/11/30 04:28:27;;;;;;;31.15;22.23;;;5.20;99.90;;;;;;4984306;28;20043;-79
2022/11/30 04:30:54;;;;;;;30.50;21.83;;;5.20;99.90;;;;;;4985569;28;20522;-77
2022/11/30 04:33:22;;;;;;;37.42;25.38;;;5.30;99.90;;;;;;4985734;28;20065;-77
2022/11/30 04:35:52;;;;;;;33.67;23.33;;;5.20;99.90;;;;;;4984621;28;20046;-78
2022/11/30 04:38:20;;;;;;;33.05;22.75;;;5.20;99.90;;;;;;4982901;28;20046;-77
2022/11/30 04:40:47;;;;;;;31.17;22.65;;;5.10;99.90;;;;;;4982559;28;20322;-78
2022/11/30 04:43:16;;;;;;;33.75;23.42;;;5.10;99.90;;;;;;4983632;28;20045;-78
2022/11/30 04:45:45;;;;;;;35.83;25.08;;;5.10;99.90;;;;;;4987075;28;20462;-77
2022/11/30 04:48:12;;;;;;;32.03;22.77;;;5.20;99.90;;;;;;4992119;28;20069;-77
2022/11/30 04:50:40;;;;;;;34.50;24.15;;;5.30;99.90;;;;;;4986438;28;20481;-76
2022/11/30 04:53:09;;;;;;;35.22;24.55;;;5.30;99.90;;;;;;4986831;28;20042;-79
2022/11/30 04:55:38;;;;;;;35.10;24.45;;;5.10;99.90;;;;;;4986979;28;20045;-77
2022/11/30 04:58:05;;;;;;;34.78;24.65;;;5.10;99.90;;;;;;4985463;28;20081;-77
2022/11/30 05:00:34;;;;;;;36.72;25.70;;;5.00;99.90;;;;;;4986231;28;20054;-77
2022/11/30 05:03:02;;;;;;;38.10;25.48;;;5.00;99.90;;;;;;4982939;28;20055;-77
2022/11/30 05:05:29;;;;;;;38.30;25.75;;;4.90;99.90;;;;;;4986202;28;20053;-76
2022/11/30 05:07:58;;;;;;;35.72;25.75;;;5.00;99.90;;;;;;4985671;28;20096;-78
2022/11/30 05:10:26;;;;;;;39.50;26.45;;;5.10;99.90;;;;;;4989018;28;20081;-76
2022/11/30 05:12:53;;;;;;;40.85;27.67;;;5.10;99.90;;;;;;4985635;28;20109;-76
2022/11/30 05:15:21;;;;;;;41.70;25.65;;;5.10;99.90;;;;;;4983438;28;20125;-77
2022/11/30 05:17:50;;;;;;;38.25;26.25;;;5.00;99.90;;;;;;4983402;28;20042;-79
2022/11/30 05:20:17;;;;;;;40.90;26.73;;;5.10;99.90;;;;;;4989374;28;20038;-74
2022/11/30 05:22:45;;;;;;;36.78;25.98;;;5.10;99.90;;;;;;4991636;28;20042;-76
2022/11/30 05:25:12;;;;;;;40.67;27.67;;;5.10;99.90;;;;;;4985951;28;20038;-78
2022/11/30 05:27:39;;;;;;;38.70;26.52;;;5.00;99.90;;;;;;4985692;28;20043;-77
2022/11/30 05:30:08;;;;;;;34.17;23.20;;;5.10;99.90;;;;;;4984418;28;20556;-76
2022/11/30 05:32:35;;;;;;;38.33;25.45;;;5.10;99.90;;;;;;4986316;28;20039;-79
2022/11/30 05:35:05;;;;;;;37.33;26.60;;;5.00;99.90;;;;;;4982489;28;20038;-76
2022/11/30 05:37:32;;;;;;;46.22;27.90;;;4.90;99.90;;;;;;4983392;28;20062;-77
2022/11/30 05:40:00;;;;;;;40.00;27.00;;;4.80;99.90;;;;;;4985799;28;20075;-78
2022/11/30 05:42:27;;;;;;;37.67;26.67;;;4.80;99.90;;;;;;4983170;28;20410;-76
2022/11/30 05:44:54;;;;;;;41.67;27.17;;;4.80;99.90;;;;;;4981487;28;20058;-77
2022/11/30 05:47:22;;;;;;;41.40;27.08;;;4.90;99.90;;;;;;4982584;28;20050;-79
2022/11/30 05:49:49;;;;;;;38.72;26.17;;;4.90;99.90;;;;;;4981826;28;20051;-80
2022/11/30 05:52:18;;;;;;;40.88;26.90;;;5.00;99.90;;;;;;4980971;28;20038;-77
2022/11/30 05:54:45;;;;;;;38.60;26.27;;;5.00;99.90;;;;;;4982251;28;20046;-77
2022/11/30 05:57:12;;;;;;;38.40;25.73;;;5.00;99.90;;;;;;4981721;28;20546;-76
2022/11/30 05:59:40;;;;;;;39.05;25.05;;;5.10;99.90;;;;;;4984587;28;20123;-79
2022/11/30 06:02:07;;;;;;;42.75;27.55;;;5.20;99.90;;;;;;4982179;28;20507;-78
2022/11/30 06:04:35;;;;;;;43.00;28.20;;;5.20;99.90;;;;;;4981262;28;20046;-77
2022/11/30 06:07:03;;;;;;;41.53;27.48;;;5.20;99.90;;;;;;4983234;28;20043;-74
2022/11/30 06:09:32;;;;;;;39.58;26.08;;;5.20;99.90;;;;;;4995755;23;20101;-79
2022/11/30 06:11:59;;;;;;;47.78;30.02;;;5.20;99.90;;;;;;4980186;28;20129;-80
2022/11/30 06:14:26;;;;;;;48.38;31.55;;;5.20;99.90;;;;;;4967930;28;20514;-81
2022/11/30 06:16:54;;;;;;;46.63;31.33;;;5.00;99.90;;;;;;4965048;28;20039;-80
2022/11/30 06:19:21;;;;;;;46.25;29.73;;;5.10;99.90;;;;;;4948167;28;20078;-81
2022/11/30 06:21:48;;;;;;;49.08;32.00;;;5.10;99.90;;;;;;4962043;28;20042;-80
2022/11/30 06:24:16;;;;;;;46.22;30.83;;;5.10;99.90;;;;;;4961105;28;20126;-81
2022/11/30 06:26:44;;;;;;;45.50;29.98;;;5.20;99.90;;;;;;4967125;28;20098;-80
2022/11/30 06:29:12;;;;;;;45.40;29.65;;;5.10;99.90;;;;;;4976719;28;20035;-80
2022/11/30 06:31:40;;;;;;;46.53;28.25;;;5.10;99.90;;;;;;4970329;28;20051;-79
2022/11/30 06:34:07;;;;;;;42.17;27.85;;;5.20;99.90;;;;;;4964257;28;20039;-80
2022/11/30 06:36:35;;;;;;;47.97;31.00;;;5.20;99.90;;;;;;4961471;28;20051;-80
2022/11/30 06:39:02;;;;;;;39.97;26.33;;;5.20;99.90;;;;;;4961997;28;20053;-81
2022/11/30 06:41:30;;;;;;;43.40;28.60;;;5.00;99.90;;;;;;4963036;28;20051;-79
2022/11/30 06:43:59;;;;;;;48.88;31.67;;;5.10;99.90;;;;;;4944002;28;20109;-80
2022/11/30 06:46:26;;;;;;;49.33;30.80;;;5.10;99.90;;;;;;4961936;28;20043;-79
2022/11/30 06:48:54;;;;;;;45.97;30.02;;;5.10;99.90;;;;;;4961688;28;20079;-81
2022/11/30 06:51:21;;;;;;;44.25;29.67;;;5.20;99.90;;;;;;4960960;28;20043;-80
2022/11/30 06:53:49;;;;;;;44.22;30.13;;;5.20;99.90;;;;;;4945532;28;20364;-81
2022/11/30 06:56:16;;;;;;;45.17;29.27;;;5.10;99.90;;;;;;4961798;28;20043;-79
2022/11/30 06:58:45;;;;;;;46.33;30.27;;;5.10;99.90;;;;;;4943970;28;20054;-81
2022/11/30 07:01:15;;;;;;;46.65;30.30;;;4.90;99.90;;;;;;4964554;28;20039;-80
2022/11/30 07:03:43;;;;;;;42.42;29.77;;;4.90;99.90;;;;;;4963884;28;20054;-81
2022/11/30 07:06:12;;;;;;;51.85;32.80;;;5.00;99.90;;;;;;4965883;28;20101;-79
2022/11/30 07:08:40;;;;;;;42.80;26.80;;;5.10;99.90;;;;;;4963826;28;20059;-82
2022/11/30 07:11:10;;;;;;;43.22;28.67;;;4.90;99.90;;;;;;4964373;28;20042;-80
2022/11/30 07:13:38;;;;;;;41.85;27.80;;;4.90;99.90;;;;;;4959954;28;20030;-80
2022/11/30 07:16:06;;;;;;;57.85;31.83;;;4.90;99.90;;;;;;4959675;28;20047;-78
2022/11/30 07:18:35;;;;;;;46.50;29.65;;;5.10;99.90;;;;;;4943180;28;20058;-80
2022/11/30 07:21:04;;;;;;;43.65;30.58;;;5.30;99.90;;;;;;4961039;28;20074;-79
2022/11/30 07:26:16;;;;;;;38.25;26.85;;;5.30;99.90;;;;;;4961525;28;20114;-78
2022/11/30 07:28:46;;;;;;;41.40;26.95;;;5.40;99.90;;;;;;4960993;28;20455;-79
2022/11/30 07:31:16;;;;;;;44.65;29.25;;;5.30;99.90;;;;;;4958360;28;20121;-80
2022/11/30 07:33:45;;;;;;;42.83;27.02;;;5.20;99.90;;;;;;4958584;28;20047;-81
2022/11/30 07:36:12;;;;;;;42.15;28.50;;;5.20;99.90;;;;;;4960559;28;20157;-80
2022/11/30 07:38:40;;;;;;;44.53;28.80;;;5.20;99.90;;;;;;4961532;28;20051;-80
2022/11/30 07:41:08;;;;;;;40.70;27.70;;;5.10;99.90;;;;;;4965420;28;20116;-79
2022/11/30 07:43:36;;;;;;;39.58;27.88;;;5.00;99.90;;;;;;4970397;28;20043;-81
2022/11/30 07:46:04;;;;;;;39.63;27.60;;;5.20;99.90;;;;;;4965439;28;20105;-81
2022/11/30 07:48:32;;;;;;;39.83;27.08;;;5.10;99.90;;;;;;4964635;28;20046;-80
2022/11/30 07:51:05;;;;;;;38.22;26.88;;;5.10;99.90;;;;;;4963591;28;20499;-78
2022/11/30 07:53:32;;;;;;;36.20;25.63;;;5.10;99.90;;;;;;4962661;28;20101;-79
2022/11/30 07:56:05;;;;;;;38.42;26.40;;;5.20;99.90;;;;;;4965333;28;20039;-79
2022/11/30 07:58:33;;;;;;;47.33;28.63;;;5.20;99.90;;;;;;4963386;28;20051;-80
2022/11/30 08:01:05;;;;;;;40.70;23.95;;;5.30;99.90;;;;;;4964477;28;20053;-80
2022/11/30 08:03:32;;;;;;;42.58;27.60;;;5.30;99.90;;;;;;4964110;28;20039;-80
2022/11/30 08:06:03;;;;;;;35.60;24.73;;;5.30;99.90;;;;;;4962914;28;20050;-80
2022/11/30 08:08:32;;;;;;;40.95;25.65;;;5.40;99.90;;;;;;4962699;28;20066;-81
2022/11/30 08:11:00;;;;;;;38.53;24.83;;;5.50;99.90;;;;;;4947351;28;20074;-81
2022/11/30 08:13:28;;;;;;;34.15;23.80;;;5.50;99.90;;;;;;4964726;28;20050;-79
2022/11/30 08:15:55;;;;;;;33.65;23.30;;;5.70;99.90;;;;;;4964805;28;20050;-79
2022/11/30 08:18:23;;;;;;;37.10;23.83;;;5.80;99.90;;;;;;4963931;28;20109;-80
2022/11/30 08:20:58;;;;;;;34.92;22.90;;;5.80;99.90;;;;;;4962687;28;20407;-79
2022/11/30 08:23:28;;;;;;;37.42;25.90;;;5.80;99.90;;;;;;4963669;28;20042;-79
2022/11/30 08:25:55;;;;;;;34.78;22.85;;;5.80;99.90;;;;;;4963108;28;20048;-80
2022/11/30 08:28:23;;;;;;;34.42;22.75;;;5.60;99.90;;;;;;4964966;28;20051;-80
2022/11/30 08:30:50;;;;;;;33.90;22.50;;;5.50;99.90;;;;;;4947204;28;20434;-78
2022/11/30 08:33:17;;;;;;;36.45;24.67;;;5.40;99.90;;;;;;4963700;28;20496;-78
2022/11/30 08:35:45;;;;;;;38.00;25.50;;;5.50;99.90;;;;;;4947987;28;20046;-78
2022/11/30 08:38:12;;;;;;;35.20;24.17;;;5.60;99.90;;;;;;4965673;28;20047;-80
2022/11/30 08:40:41;;;;;;;33.42;22.65;;;5.70;99.90;;;;;;4964534;28;20392;-79
2022/11/30 08:43:08;;;;;;;38.03;24.48;;;5.80;99.90;;;;;;4961994;28;20047;-80
2022/11/30 08:45:36;;;;;;;39.85;26.13;;;5.60;99.90;;;;;;4963636;28;20046;-81
2022/11/30 08:48:03;;;;;;;40.72;27.88;;;5.60;99.90;;;;;;4959850;28;20487;-79
2022/11/30 08:50:31;;;;;;;40.80;27.17;;;5.70;99.90;;;;;;4969506;28;20072;-82
2022/11/30 08:52:58;;;;;;;43.03;28.08;;;5.70;99.90;;;;;;4968220;28;20106;-80
2022/11/30 08:55:25;;;;;;;42.30;27.63;;;5.70;99.90;;;;;;4969111;28;20067;-80
2022/11/30 08:57:54;;;;;;;41.60;27.55;;;5.60;99.90;;;;;;4946255;28;20066;-82
2022/11/30 09:00:22;;;;;;;45.33;30.83;;;5.50;99.90;;;;;;4962143;28;20043;-81
2022/11/30 09:02:50;;;;;;;41.90;27.70;;;5.40;99.90;;;;;;4963344;28;20047;-80
2022/11/30 09:05:17;;;;;;;42.40;26.50;;;5.50;99.90;;;;;;4951142;28;20134;-79
2022/11/30 09:07:44;;;;;;;43.45;27.02;;;5.50;99.90;;;;;;4978135;28;20076;-79
2022/11/30 09:10:12;;;;;;;41.97;26.27;;;5.50;99.90;;;;;;4979589;28;20058;-80
2022/11/30 09:12:41;;;;;;;43.08;26.75;;;5.70;99.90;;;;;;4975704;28;20050;-82
2022/11/30 09:15:10;;;;;;;44.30;27.35;;;5.80;99.90;;;;;;4967681;28;20049;-81
2022/11/30 09:17:38;;;;;;;43.97;27.58;;;5.80;99.90;;;;;;4966500;28;20044;-81
2022/11/30 09:20:06;;;;;;;45.08;28.67;;;5.70;99.90;;;;;;4962773;28;20070;-81
2022/11/30 09:22:34;;;;;;;43.78;28.58;;;5.60;99.90;;;;;;4960304;28;20098;-81
2022/11/30 09:25:01;;;;;;;46.97;27.52;;;5.70;99.90;;;;;;4947199;28;20054;-80
2022/11/30 09:27:32;;;;;;;48.83;28.52;;;5.80;99.90;;;;;;4960221;28;20109;-81
2022/11/30 09:29:59;;;;;;;46.03;30.13;;;6.00;99.90;;;;;;4946145;28;20058;-81
2022/11/30 09:32:29;;;;;;;41.30;26.27;;;6.00;99.90;;;;;;4962761;28;20058;-80
2022/11/30 09:34:56;;;;;;;50.03;30.20;;;5.90;99.90;;;;;;4969438;28;20058;-80
2022/11/30 09:37:23;;;;;;;52.08;32.10;;;5.80;99.90;;;;;;4963489;28;20058;-80
2022/11/30 09:39:51;;;;;;;52.75;31.77;;;5.80;99.90;;;;;;4960521;28;20455;-80
2022/11/30 09:42:28;;;;;;;61.08;36.15;;;5.60;99.90;;;;;;4944305;28;20490;-80
2022/11/30 09:45:03;;;;;;;63.60;35.10;;;5.80;99.90;;;;;;4959919;28;20035;-81
2022/11/30 09:47:42;;;;;;;55.35;33.28;;;5.90;99.90;;;;;;4961789;28;20046;-80
2022/11/30 09:50:15;;;;;;;56.25;33.83;;;5.80;99.90;;;;;;4963220;28;20035;-80
2022/11/30 09:52:46;;;;;;;52.50;32.25;;;5.70;99.90;;;;;;4958596;28;20091;-80
2022/11/30 09:55:21;;;;;;;59.85;33.83;;;5.60;99.90;;;;;;4961605;28;20039;-80
2022/11/30 09:57:52;;;;;;;50.42;28.33;;;5.70;99.90;;;;;;4961544;28;20037;-82
2022/11/30 10:00:21;;;;;;;60.42;35.08;;;5.70;99.90;;;;;;4941891;28;20074;-81
2022/11/30 10:02:52;;;;;;;53.17;30.42;;;5.90;99.90;;;;;;4960110;28;20039;-80
2022/11/30 10:05:22;;;;;;;54.78;30.73;;;5.90;99.90;;;;;;4963214;28;20035;-81
2022/11/30 10:08:06;;;;;;;50.08;30.73;;;6.10;99.90;;;;;;4964357;28;20043;-81
2022/11/30 10:10:39;;;;;;;54.85;30.38;;;6.20;99.90;;;;;;4962898;28;20577;-81
2022/11/30 10:13:21;;;;;;;59.90;35.70;;;6.20;99.90;;;;;;4961694;28;20049;-82
2022/11/30 10:15:59;;;;;;;65.10;36.25;;;6.10;99.90;;;;;;4962137;28;20057;-82
2022/11/30 10:18:40;;;;;;;69.00;40.20;;;6.10;99.90;;;;;;4962396;28;20039;-80
2022/11/30 10:21:23;;;;;;;54.25;32.53;;;6.00;99.90;;;;;;4944284;28;20149;-83
2022/11/30 10:24:05;;;;;;;55.65;33.47;;;5.90;99.90;;;;;;4963171;28;20062;-82
2022/11/30 10:26:34;;;;;;;58.03;34.40;;;5.90;99.90;;;;;;4960291;28;20454;-82
2022/11/30 10:29:13;;;;;;;54.60;31.85;;;6.00;99.90;;;;;;4962107;28;20491;-82
2022/11/30 10:31:53;;;;;;;41.35;27.58;;;6.00;99.90;;;;;;4960214;28;20066;-82
2022/11/30 10:34:24;;;;;;;51.33;29.50;;;6.00;99.90;;;;;;4968900;28;20039;-81
2022/11/30 10:36:56;;;;;;;50.38;31.17;;;6.10;99.90;;;;;;4963077;28;20599;-81
2022/11/30 10:39:30;;;;;;;57.53;33.22;;;6.20;99.90;;;;;;4944718;28;20043;-83
2022/11/30 10:42:04;;;;;;;53.95;33.28;;;6.30;99.90;;;;;;4960626;28;20091;-80
2022/11/30 10:44:34;;;;;;;52.35;32.38;;;6.30;99.90;;;;;;4960325;28;20039;-82
2022/11/30 10:47:07;;;;;;;46.60;28.95;;;6.30;99.90;;;;;;4960291;28;20043;-80
2022/11/30 10:49:37;;;;;;;55.70;33.25;;;6.30;99.90;;;;;;4961801;28;20036;-82
2022/11/30 10:52:07;;;;;;;45.75;29.70;;;6.50;99.90;;;;;;4958526;28;20031;-80
2022/11/30 10:54:43;;;;;;;43.63;27.73;;;6.50;99.90;;;;;;4961394;28;20092;-82
2022/11/30 10:57:29;;;;;;;39.50;26.85;;;6.50;99.90;;;;;;4960767;28;20039;-84
2022/11/30 11:00:00;;;;;;;40.13;24.50;;;6.60;99.90;;;;;;4961102;28;20046;-85
2022/11/30 11:02:40;;;;;;;45.78;27.08;;;6.50;99.90;;;;;;4959229;28;20045;-82
2022/11/30 11:05:20;;;;;;;47.10;27.65;;;6.40;99.90;;;;;;4961350;28;20067;-87
2022/11/30 11:08:00;;;;;;;47.03;30.13;;;6.50;99.90;;;;;;4947463;28;20043;-88
2022/11/30 11:11:07;;;;;;;50.20;30.08;;;6.50;99.90;;;;;;4949867;28;20057;-85
2022/11/30 11:13:40;;;;;;;49.40;30.45;;;6.50;99.90;;;;;;4954343;28;20551;-90
2022/11/30 11:16:11;;;;;;;43.17;27.92;;;6.30;99.90;;;;;;4938476;29;20086;-89
2022/11/30 11:18:52;;;;;;;42.92;28.15;;;6.40;99.90;;;;;;4942163;29;20061;-86
2022/11/30 11:21:25;;;;;;;38.75;23.77;;;6.40;99.90;;;;;;4965849;28;20042;-82
2022/11/30 11:24:11;;;;;;;33.88;22.30;;;6.40;99.90;;;;;;4973914;28;20046;-90
2022/11/30 11:26:49;;;;;;;43.90;27.70;;;6.30;99.90;;;;;;4971507;28;20047;-88
2022/11/30 11:29:30;;;;;;;42.63;26.98;;;6.20;99.90;;;;;;4971722;28;20039;-88
2022/11/30 11:32:17;;;;;;;38.95;25.17;;;6.30;99.90;;;;;;4971805;28;20078;-89
2022/11/30 11:34:45;;;;;;;38.45;25.83;;;6.30;99.90;;;;;;4973968;28;20069;-89
2022/11/30 11:37:28;;;;;;;38.70;24.80;;;6.30;99.90;;;;;;4945453;28;20054;-91
2022/11/30 11:40:04;;;;;;;37.63;25.38;;;6.30;99.90;;;;;;4957205;28;20109;-79
2022/11/30 11:42:37;;;;;;;33.72;23.35;;;6.30;99.90;;;;;;4975123;28;20501;-89
2022/11/30 11:45:06;;;;;;;36.55;24.42;;;6.30;99.90;;;;;;4957149;28;20046;-84
2022/11/30 11:47:39;;;;;;;40.90;25.75;;;6.30;99.90;;;;;;4974148;28;20160;-82
2022/11/30 11:50:22;;;;;;;46.10;27.80;;;6.30;99.90;;;;;;4980845;28;20093;-83
2022/11/30 11:53:06;;;;;;;39.72;25.83;;;6.30;99.90;;;;;;4987447;28;20053;-84
2022/11/30 11:55:34;;;;;;;41.75;25.98;;;6.30;99.90;;;;;;4974085;28;20066;-84
2022/11/30 11:58:03;;;;;;;47.88;28.70;;;6.20;99.90;;;;;;4955333;28;20047;-83
2022/11/30 12:00:31;;;;;;;55.13;32.47;;;6.10;99.90;;;;;;4972125;28;20042;-84
2022/11/30 12:03:04;;;;;;;51.63;31.58;;;6.20;99.90;;;;;;4970164;28;20487;-84
2022/11/30 12:05:36;;;;;;;41.42;26.77;;;6.20;99.90;;;;;;4958752;28;20047;-83
2022/11/30 12:08:15;;;;;;;41.50;27.65;;;6.20;99.90;;;;;;4984144;28;20043;-84
2022/11/30 12:10:48;;;;;;;29.75;21.40;;;6.30;99.90;;;;;;4976678;28;20845;-86
2022/11/30 12:13:18;;;;;;;37.83;25.60;;;6.50;99.90;;;;;;4971607;28;20085;-85
2022/11/30 12:16:04;;;;;;;40.05;26.30;;;6.60;99.90;;;;;;4970836;28;20487;-86
2022/11/30 12:18:38;;;;;;;41.83;25.50;;;6.60;99.90;;;;;;4971871;28;20165;-84
2022/11/30 12:21:12;;;;;;;37.92;25.58;;;6.70;99.90;;;;;;4970425;28;20042;-86
2022/11/30 12:23:59;;;;;;;55.55;35.10;;;6.70;99.90;;;;;;4972590;28;20047;-86
2022/11/30 12:26:35;;;;;;;49.53;31.58;;;6.80;99.90;;;;;;4954224;28;20051;-85
2022/11/30 12:29:22;;;;;;;;;;;6.60;99.90;;;;;;4974870;28;20055;-83
2022/11/30 12:32:07;;;;;;;48.35;31.00;;;6.70;99.90;;;;;;4973476;28;19945;-83
2022/11/30 12:34:56;;;;;;;44.97;30.58;;;6.80;99.90;;;;;;4974919;28;20134;-83
2022/11/30 12:37:33;;;;;;;48.85;31.77;;;6.80;99.90;;;;;;4974307;28;20047;-82
2022/11/30 12:40:17;;;;;;;44.90;29.42;;;6.70;99.90;;;;;;4972412;28;20123;-82
2022/11/30 12:42:52;;;;;;;40.33;27.27;;;6.80;99.90;;;;;;4973006;28;20045;-84
2022/11/30 12:45:27;;;;;;;39.30;26.80;;;6.80;99.90;;;;;;4973278;28;20038;-86
2022/11/30 12:48:00;;;;;;;42.00;27.13;;;6.90;99.90;;;;;;4973197;28;20050;-82
2022/11/30 12:50:43;;;;;;;37.38;25.33;;;6.90;99.90;;;;;;4973960;28;20050;-82
2022/11/30 12:53:20;;;;;;;32.47;23.52;;;6.90;99.90;;;;;;4974303;28;20046;-82
2022/11/30 12:56:00;;;;;;;37.60;25.58;;;7.00;99.90;;;;;;4973025;28;20046;-83